Time;durP1;ratioP1;P1;durP2;ratioP2;P2;SDS_P1;SDS_P2;PMS_P1;PMS_P2;Temp;Humidity;BMP_temperature;BMP_pressure;BME280_temperature;BME280_humidity;BME280_pressure;Samples;Min_cycle;Max_cycle;Signal;HPM_P1;HPM_P2
2022/12/09 00:01:27;;;;;;;7.60;6.35;;;6.50;99.90;;;;;;4980139;28;20453;-76
2022/12/09 00:03:54;;;;;;;10.70;7.30;;;6.50;99.90;;;;;;4990808;28;20280;-76
2022/12/09 00:06:21;;;;;;;8.98;6.53;;;6.50;99.90;;;;;;4976364;28;20406;-76
2022/12/09 00:08:50;;;;;;;9.93;6.95;;;6.50;99.90;;;;;;4982683;28;20606;-76
2022/12/09 00:11:17;;;;;;;9.13;6.90;;;6.40;99.90;;;;;;4953123;28;20211;-75
2022/12/09 00:13:51;;;;;;;11.57;8.27;;;6.50;99.90;;;;;;4960494;28;20277;-74
2022/12/09 00:16:18;;;;;;;9.35;6.38;;;6.50;99.90;;;;;;5009662;28;20452;-76
2022/12/09 00:18:46;;;;;;;9.15;5.90;;;6.50;99.90;;;;;;4978746;28;20529;-75
2022/12/09 00:21:23;;;;;;;7.83;6.50;;;6.50;99.90;;;;;;5003064;28;20212;-76
2022/12/09 00:23:50;;;;;;;12.43;7.40;;;6.40;99.90;;;;;;4995673;28;20458;-76
2022/12/09 00:26:22;;;;;;;9.60;7.10;;;6.40;99.90;;;;;;4981254;28;20449;-76
2022/12/09 00:28:52;;;;;;;11.13;7.30;;;6.40;99.90;;;;;;4976118;28;20728;-76
2022/12/09 00:31:26;;;;;;;10.27;6.68;;;6.50;99.90;;;;;;4959782;28;20295;-75
2022/12/09 00:33:56;;;;;;;8.60;6.20;;;6.40;99.90;;;;;;4959912;28;20215;-75
2022/12/09 00:36:23;;;;;;;9.02;7.05;;;6.40;99.90;;;;;;4960149;28;20422;-75
2022/12/09 00:38:53;;;;;;;9.90;7.55;;;6.40;99.90;;;;;;4994791;28;20167;-75
2022/12/09 00:41:22;;;;;;;10.45;7.25;;;6.40;99.90;;;;;;5002767;28;20203;-75
2022/12/09 00:43:52;;;;;;;7.93;6.68;;;6.40;99.90;;;;;;4944212;28;20273;-75
2022/12/09 00:46:18;;;;;;;10.85;7.80;;;6.40;99.90;;;;;;4992035;28;20186;-75
2022/12/09 00:48:47;;;;;;;9.35;7.35;;;6.40;99.90;;;;;;4979248;28;20157;-75
2022/12/09 00:51:16;;;;;;;11.73;7.60;;;6.40;99.90;;;;;;4994497;28;20579;-75
2022/12/09 00:53:46;;;;;;;8.70;6.90;;;6.40;99.90;;;;;;4995509;28;20179;-75
2022/12/09 00:56:14;;;;;;;7.55;6.55;;;6.40;99.90;;;;;;4989059;28;20211;-75
2022/12/09 00:58:43;;;;;;;10.52;7.30;;;6.40;99.90;;;;;;4963129;28;20202;-76
2022/12/09 01:01:12;;;;;;;10.95;7.45;;;6.50;99.90;;;;;;4990767;28;20301;-75
2022/12/09 01:03:40;;;;;;;10.23;7.70;;;6.40;99.90;;;;;;4995290;28;20258;-75
2022/12/09 01:06:11;;;;;;;9.85;7.80;;;6.40;99.90;;;;;;4989549;28;20792;-75
2022/12/09 01:08:40;;;;;;;11.23;8.87;;;6.40;99.90;;;;;;4969885;28;20212;-76
2022/12/09 01:11:21;;;;;;;12.15;8.10;;;6.40;99.90;;;;;;4979046;28;20463;-75
2022/12/09 01:13:49;;;;;;;9.63;8.07;;;6.40;99.90;;;;;;4979015;28;20290;-75
2022/12/09 01:16:26;;;;;;;10.77;7.75;;;6.40;99.90;;;;;;4989722;28;20206;-75
2022/12/09 01:18:59;;;;;;;10.98;8.13;;;6.50;99.90;;;;;;4995106;28;20548;-76
2022/12/09 01:21:26;;;;;;;11.98;9.13;;;6.40;99.90;;;;;;4973982;28;20300;-75
2022/12/09 01:23:57;;;;;;;11.47;8.90;;;6.40;99.90;;;;;;4995122;28;20532;-75
2022/12/09 01:26:27;;;;;;;13.90;9.43;;;6.40;99.90;;;;;;4981250;28;20417;-75
2022/12/09 01:28:55;;;;;;;14.07;8.85;;;6.40;99.90;;;;;;4959671;28;20195;-76
2022/12/09 01:31:24;;;;;;;11.25;8.32;;;6.40;99.90;;;;;;4992434;28;20195;-76
2022/12/09 01:33:52;;;;;;;13.10;9.03;;;6.40;99.90;;;;;;4984857;28;20640;-75
2022/12/09 01:36:21;;;;;;;10.90;8.90;;;6.40;99.90;;;;;;4962533;28;20955;-75
2022/12/09 01:38:47;;;;;;;11.02;8.20;;;6.40;99.90;;;;;;4972787;28;20434;-76
2022/12/09 01:41:18;;;;;;;14.93;10.45;;;6.40;99.90;;;;;;4994323;28;20223;-75
2022/12/09 01:44:08;;;;;;;10.10;8.88;;;6.40;99.90;;;;;;4995748;28;20175;-76
2022/12/09 01:46:35;;;;;;;11.35;8.75;;;6.40;99.90;;;;;;4982894;28;20288;-75
2022/12/09 01:49:01;;;;;;;12.65;9.98;;;6.40;99.90;;;;;;4965829;28;20185;-75
2022/12/09 01:51:28;;;;;;;14.13;9.43;;;6.40;99.90;;;;;;4982021;28;20290;-75
2022/12/09 01:53:55;;;;;;;13.37;9.17;;;6.40;99.90;;;;;;5009190;28;20287;-75
2022/12/09 01:56:25;;;;;;;12.20;9.45;;;6.40;99.90;;;;;;4998387;28;20438;-75
2022/12/09 01:58:53;;;;;;;14.52;9.48;;;6.40;99.90;;;;;;4982206;28;20187;-75
2022/12/09 02:01:21;;;;;;;12.93;9.20;;;6.40;99.90;;;;;;4982179;28;20680;-75
2022/12/09 02:03:50;;;;;;;14.45;9.40;;;6.40;99.90;;;;;;4995388;28;20560;-75
2022/12/09 02:06:19;;;;;;;14.18;10.40;;;6.40;99.90;;;;;;4998382;28;20206;-76
2022/12/09 02:08:48;;;;;;;14.73;9.70;;;6.40;99.90;;;;;;4966041;28;20183;-76
2022/12/09 02:11:40;;;;;;;12.80;9.20;;;6.40;99.90;;;;;;4997968;28;20209;-75
2022/12/09 02:14:19;;;;;;;11.57;8.70;;;6.40;99.90;;;;;;5000241;28;20274;-75
2022/12/09 02:17:24;;;;;;;11.73;8.43;;;6.40;99.90;;;;;;4981615;28;20210;-76
2022/12/09 02:20:14;;;;;;;14.23;9.70;;;6.40;99.90;;;;;;4982510;28;20217;-75
2022/12/09 02:22:59;;;;;;;12.95;9.15;;;6.40;99.90;;;;;;4972651;28;20204;-75
2022/12/09 02:25:56;;;;;;;15.27;9.68;;;6.40;99.90;;;;;;4968571;28;20746;-75
2022/12/09 02:28:55;;;;;;;14.60;10.45;;;6.40;99.90;;;;;;4969081;28;20833;-76
2022/12/09 02:31:49;;;;;;;16.70;9.98;;;6.30;99.90;;;;;;4978460;28;20647;-76
2022/12/09 02:34:19;;;;;;;14.02;11.00;;;6.30;99.90;;;;;;4973728;28;20652;-76
2022/12/09 02:36:51;;;;;;;14.30;10.15;;;6.30;99.90;;;;;;5015100;28;20205;-75
2022/12/09 02:39:29;;;;;;;14.27;10.03;;;6.30;99.90;;;;;;4997380;28;20253;-75
2022/12/09 02:42:03;;;;;;;15.70;10.18;;;6.30;99.90;;;;;;4962630;28;20540;-75
2022/12/09 02:44:31;;;;;;;12.20;9.20;;;6.30;99.90;;;;;;4961741;28;20237;-75
2022/12/09 02:47:00;;;;;;;17.63;11.15;;;6.30;99.90;;;;;;4980929;28;20431;-75
2022/12/09 02:49:29;;;;;;;17.42;11.23;;;6.30;99.90;;;;;;4994694;28;20176;-75
2022/12/09 02:51:57;;;;;;;12.95;10.63;;;6.30;99.90;;;;;;4978260;28;20212;-75
2022/12/09 02:54:28;;;;;;;14.18;9.85;;;6.30;99.90;;;;;;4967011;28;20709;-75
2022/12/09 02:57:00;;;;;;;16.63;10.23;;;6.30;99.90;;;;;;4977626;28;20198;-76
2022/12/09 02:59:32;;;;;;;13.05;10.07;;;6.30;99.90;;;;;;5025902;23;20206;-72
2022/12/09 03:02:21;;;;;;;14.18;9.52;;;6.30;99.90;;;;;;4958939;28;20250;-73
2022/12/09 03:04:56;;;;;;;16.00;9.75;;;6.30;99.90;;;;;;4959126;28;20254;-73
2022/12/09 03:07:39;;;;;;;14.23;10.15;;;6.30;99.90;;;;;;4959024;28;20191;-73
2022/12/09 03:10:11;;;;;;;14.00;8.73;;;6.30;99.90;;;;;;4976019;28;20211;-73
2022/12/09 03:12:43;;;;;;;13.00;9.00;;;6.30;99.90;;;;;;4958743;28;20215;-73
2022/12/09 03:15:14;;;;;;;14.30;9.93;;;6.30;99.90;;;;;;4958877;28;20527;-73
2022/12/09 03:17:43;;;;;;;15.20;9.68;;;6.30;99.90;;;;;;4942588;28;20295;-73
2022/12/09 03:20:23;;;;;;;12.40;8.60;;;6.30;99.90;;;;;;4958528;28;20219;-73
2022/12/09 03:22:58;;;;;;;11.23;8.63;;;6.30;99.90;;;;;;4975789;28;20200;-73
2022/12/09 03:25:32;;;;;;;11.75;8.95;;;6.30;99.90;;;;;;4975815;28;20171;-73
2022/12/09 03:28:03;;;;;;;12.18;9.02;;;6.30;99.90;;;;;;4958654;28;20522;-73
2022/12/09 03:30:38;;;;;;;12.52;8.18;;;6.30;99.90;;;;;;4942587;28;20216;-73
2022/12/09 03:33:06;;;;;;;13.53;8.90;;;6.30;99.90;;;;;;4939302;29;20195;-73
2022/12/09 03:35:42;;;;;;;13.35;9.57;;;6.30;99.90;;;;;;4939260;29;20507;-73
2022/12/09 03:38:14;;;;;;;13.40;8.25;;;6.30;99.90;;;;;;4939154;29;20671;-73
2022/12/09 03:40:44;;;;;;;11.52;8.80;;;6.30;99.90;;;;;;4956441;29;20299;-73
2022/12/09 03:43:32;;;;;;;11.50;8.15;;;6.30;99.90;;;;;;4956093;29;20650;-73
2022/12/09 03:45:58;;;;;;;8.85;7.70;;;6.30;99.90;;;;;;4939170;29;20175;-73
2022/12/09 03:48:25;;;;;;;10.32;7.65;;;6.30;99.90;;;;;;4939148;29;20255;-73
2022/12/09 03:51:02;;;;;;;12.18;8.90;;;6.30;99.90;;;;;;4947334;28;20299;-73
2022/12/09 03:54:02;;;;;;;8.20;7.30;;;6.30;99.90;;;;;;4941914;28;20193;-73
2022/12/09 03:56:34;;;;;;;11.40;7.35;;;6.30;99.90;;;;;;4958162;28;20662;-73
2022/12/09 03:59:06;;;;;;;11.65;8.25;;;6.30;99.90;;;;;;4957889;28;20325;-73
2022/12/09 04:01:37;;;;;;;11.75;8.35;;;6.30;99.90;;;;;;4958274;28;20206;-73
2022/12/09 04:04:07;;;;;;;12.77;7.57;;;6.30;99.90;;;;;;4957894;28;20164;-73
2022/12/09 04:06:34;;;;;;;8.88;6.85;;;6.30;99.90;;;;;;4941891;28;20218;-73
2022/12/09 04:09:03;;;;;;;10.40;8.00;;;6.30;99.90;;;;;;4957535;28;20184;-73
2022/12/09 04:11:33;;;;;;;11.65;7.75;;;6.30;99.90;;;;;;4941947;28;20207;-73
2022/12/09 04:13:59;;;;;;;11.95;7.90;;;6.30;99.90;;;;;;4957883;28;20276;-73
2022/12/09 04:16:27;;;;;;;9.57;7.00;;;6.30;99.90;;;;;;4957790;28;20199;-73
2022/12/09 04:18:54;;;;;;;8.00;7.20;;;6.30;99.90;;;;;;4973782;28;20526;-73
2022/12/09 04:21:20;;;;;;;12.70;7.70;;;6.30;99.90;;;;;;4957344;28;20213;-73
2022/12/09 04:23:46;;;;;;;9.43;7.50;;;6.30;99.90;;;;;;4972027;28;20173;-73
2022/12/09 04:26:20;;;;;;;8.63;6.90;;;6.30;99.90;;;;;;4938365;29;20400;-73
2022/12/09 04:28:49;;;;;;;9.48;6.88;;;6.30;99.90;;;;;;4938358;29;20418;-73
2022/12/09 04:31:20;;;;;;;9.00;7.03;;;6.30;99.90;;;;;;4969747;28;20196;-73
2022/12/09 04:33:46;;;;;;;12.10;7.22;;;6.30;99.90;;;;;;4938224;29;20260;-73
2022/12/09 04:36:19;;;;;;;11.13;6.60;;;6.30;99.90;;;;;;4955488;29;20184;-73
2022/12/09 04:38:46;;;;;;;10.03;7.50;;;6.30;99.90;;;;;;4954204;29;20418;-73
2022/12/09 04:41:15;;;;;;;9.65;8.57;;;6.30;99.90;;;;;;4981995;28;20485;-73
2022/12/09 04:43:43;;;;;;;9.10;6.68;;;6.30;99.90;;;;;;4956854;28;20208;-72
2022/12/09 04:46:14;;;;;;;9.05;6.85;;;6.30;99.90;;;;;;4957370;28;20168;-73
2022/12/09 04:48:42;;;;;;;9.85;7.90;;;6.30;99.90;;;;;;4957249;28;20188;-73
2022/12/09 04:51:16;;;;;;;10.40;6.88;;;6.30;99.90;;;;;;4973648;28;20215;-73
2022/12/09 04:53:43;;;;;;;9.95;6.70;;;6.30;99.90;;;;;;4973525;28;20188;-73
2022/12/09 04:56:20;;;;;;;9.77;7.60;;;6.30;99.90;;;;;;4964608;28;20295;-73
2022/12/09 04:58:51;;;;;;;8.90;7.07;;;6.30;99.90;;;;;;4922172;29;20407;-73
2022/12/09 05:01:23;;;;;;;8.93;6.40;;;6.30;99.90;;;;;;4954703;29;20224;-73
2022/12/09 05:03:52;;;;;;;10.38;7.10;;;6.30;99.90;;;;;;4955008;29;20233;-73
2022/12/09 05:06:22;;;;;;;10.73;6.47;;;6.30;99.90;;;;;;4937942;29;20197;-73
2022/12/09 05:08:50;;;;;;;9.63;7.03;;;6.30;99.90;;;;;;4937835;29;20184;-73
2022/12/09 05:11:18;;;;;;;8.23;6.07;;;6.30;99.90;;;;;;4937964;29;20634;-73
2022/12/09 05:13:45;;;;;;;6.85;6.05;;;6.30;99.90;;;;;;4969863;28;20177;-73
2022/12/09 05:16:13;;;;;;;7.63;6.13;;;6.20;99.90;;;;;;4937651;29;20209;-73
2022/12/09 05:18:42;;;;;;;9.88;6.13;;;6.20;99.90;;;;;;4938644;29;20212;-72
2022/12/09 05:21:13;;;;;;;9.30;6.97;;;6.20;99.90;;;;;;4940951;28;20692;-74
2022/12/09 05:23:42;;;;;;;7.65;6.18;;;6.20;99.90;;;;;;4944748;28;20165;-73
2022/12/09 05:26:13;;;;;;;7.82;6.57;;;6.20;99.90;;;;;;4945030;28;20175;-73
2022/12/09 05:28:39;;;;;;;9.73;6.85;;;6.20;99.90;;;;;;4978045;28;20204;-72
2022/12/09 05:31:18;;;;;;;9.57;6.35;;;6.20;99.90;;;;;;4978046;28;20281;-72
2022/12/09 05:33:50;;;;;;;8.30;6.43;;;6.30;99.90;;;;;;4977654;28;20245;-72
2022/12/09 05:36:22;;;;;;;7.65;6.30;;;6.20;99.90;;;;;;4977223;28;20179;-73
2022/12/09 05:38:51;;;;;;;8.60;6.35;;;6.20;99.90;;;;;;4960678;28;20574;-73
2022/12/09 05:41:21;;;;;;;9.35;6.47;;;6.20;99.90;;;;;;4944433;28;20578;-72
2022/12/09 05:43:48;;;;;;;9.25;6.93;;;6.20;99.90;;;;;;4960384;28;20696;-73
2022/12/09 05:46:14;;;;;;;8.73;6.13;;;6.20;99.90;;;;;;4939049;28;20204;-72
2022/12/09 05:48:40;;;;;;;10.65;7.63;;;6.20;99.90;;;;;;4992778;28;20628;-73
2022/12/09 05:51:11;;;;;;;11.25;6.72;;;6.20;99.90;;;;;;4928447;28;20302;-75
2022/12/09 05:53:39;;;;;;;7.95;5.85;;;6.20;99.90;;;;;;4928865;28;20179;-73
2022/12/09 05:56:13;;;;;;;10.57;7.25;;;6.20;99.90;;;;;;4960303;28;20647;-72
2022/12/09 05:58:39;;;;;;;8.80;6.32;;;6.20;99.90;;;;;;4944384;28;20212;-73
2022/12/09 06:01:06;;;;;;;9.38;7.13;;;6.20;99.90;;;;;;4960103;28;20210;-73
2022/12/09 06:03:32;;;;;;;9.48;7.30;;;6.20;99.90;;;;;;4992547;28;20170;-73
2022/12/09 06:05:58;;;;;;;9.57;6.82;;;6.20;99.90;;;;;;4960244;28;20200;-75
2022/12/09 06:08:24;;;;;;;10.43;6.73;;;6.20;99.90;;;;;;4948211;29;20268;-73
2022/12/09 06:10:50;;;;;;;8.85;6.90;;;6.20;99.90;;;;;;4957798;29;20444;-73
2022/12/09 06:13:16;;;;;;;9.90;6.50;;;6.20;99.90;;;;;;4925038;29;20181;-73
2022/12/09 06:15:47;;;;;;;11.93;7.43;;;6.20;99.90;;;;;;4925047;29;20450;-73
2022/12/09 06:18:15;;;;;;;7.78;6.38;;;6.20;99.90;;;;;;4957099;28;20184;-73
2022/12/09 06:20:41;;;;;;;10.90;6.60;;;6.20;99.90;;;;;;4940552;29;20264;-73
2022/12/09 06:23:07;;;;;;;10.55;7.22;;;6.20;99.90;;;;;;4909034;29;20515;-73
2022/12/09 06:25:36;;;;;;;8.70;6.25;;;6.20;99.90;;;;;;4940074;29;20241;-72
2022/12/09 06:28:03;;;;;;;8.60;6.65;;;6.20;99.90;;;;;;4942405;28;20208;-76
2022/12/09 06:30:31;;;;;;;8.65;6.35;;;6.20;99.90;;;;;;4974948;28;20850;-74
2022/12/09 06:32:57;;;;;;;8.30;6.05;;;6.20;99.90;;;;;;4958965;28;20167;-73
2022/12/09 06:35:23;;;;;;;9.13;6.40;;;6.20;99.90;;;;;;4957852;28;20212;-73
2022/12/09 06:37:54;;;;;;;9.73;7.60;;;6.20;99.90;;;;;;4958646;28;20279;-73
2022/12/09 06:40:23;;;;;;;13.48;6.75;;;6.20;99.90;;;;;;4924952;28;20522;-74
2022/12/09 06:42:52;;;;;;;8.60;6.70;;;6.10;99.90;;;;;;4945354;28;20247;-73
2022/12/09 06:45:19;;;;;;;8.90;5.82;;;6.20;99.90;;;;;;4985769;28;20167;-74
2022/12/09 06:47:47;;;;;;;7.00;6.30;;;6.20;99.90;;;;;;4975964;28;20676;-74
2022/12/09 06:50:13;;;;;;;10.00;6.80;;;6.20;99.90;;;;;;4975183;28;20196;-74
2022/12/09 06:52:44;;;;;;;6.75;6.05;;;6.20;99.90;;;;;;4957149;28;20207;-72
2022/12/09 06:55:11;;;;;;;8.95;6.25;;;6.20;99.90;;;;;;4976166;28;20287;-72
2022/12/09 06:57:37;;;;;;;10.02;6.50;;;6.20;99.90;;;;;;4950728;28;20308;-72
2022/12/09 07:00:06;;;;;;;10.32;6.45;;;6.20;99.90;;;;;;4944635;28;20363;-72
2022/12/09 07:02:33;;;;;;;8.55;6.82;;;6.20;99.90;;;;;;4956380;28;20215;-72
2022/12/09 07:05:01;;;;;;;10.60;6.80;;;6.20;99.90;;;;;;4974539;28;20181;-72
2022/12/09 07:07:27;;;;;;;8.25;6.63;;;6.20;99.90;;;;;;4974768;28;20171;-72
2022/12/09 07:09:56;;;;;;;9.33;6.60;;;6.20;99.90;;;;;;4971470;28;20194;-72
2022/12/09 07:12:24;;;;;;;8.20;6.50;;;6.10;99.90;;;;;;4942822;29;20550;-72
2022/12/09 07:14:50;;;;;;;8.90;6.65;;;6.10;99.90;;;;;;4955493;28;20659;-72
2022/12/09 07:17:19;;;;;;;7.83;6.67;;;6.10;99.90;;;;;;4987623;28;20164;-72
2022/12/09 07:19:45;;;;;;;10.90;6.95;;;6.10;99.90;;;;;;4928675;28;20468;-72
2022/12/09 07:22:13;;;;;;;9.38;6.25;;;6.10;99.90;;;;;;4974356;28;20199;-72
2022/12/09 07:24:40;;;;;;;7.43;6.05;;;6.10;99.90;;;;;;4940198;28;20183;-72
2022/12/09 07:27:07;;;;;;;8.52;6.20;;;6.10;99.90;;;;;;4973918;28;20191;-72
2022/12/09 07:29:35;;;;;;;8.90;7.15;;;6.10;99.90;;;;;;4960488;28;20534;-72
2022/12/09 07:32:01;;;;;;;6.90;6.20;;;6.10;99.90;;;;;;4971692;28;20247;-72
2022/12/09 07:34:32;;;;;;;7.15;5.80;;;6.10;99.90;;;;;;4963518;28;20217;-72
2022/12/09 07:37:01;;;;;;;7.43;6.03;;;6.10;99.90;;;;;;4940880;28;20223;-72
2022/12/09 07:39:31;;;;;;;8.37;6.70;;;6.10;99.90;;;;;;4954709;28;20493;-72
2022/12/09 07:42:05;;;;;;;10.35;7.20;;;6.10;99.90;;;;;;4953625;28;20458;-72
2022/12/09 07:44:43;;;;;;;9.52;6.60;;;6.10;99.90;;;;;;4975029;28;20198;-72
2022/12/09 07:47:11;;;;;;;8.15;5.80;;;6.10;99.90;;;;;;4955974;28;20673;-74
2022/12/09 07:49:37;;;;;;;12.20;6.67;;;6.10;99.90;;;;;;4988918;28;20181;-73
2022/12/09 07:52:03;;;;;;;9.03;6.13;;;6.10;99.90;;;;;;4940892;28;20541;-72
2022/12/09 07:54:32;;;;;;;12.50;6.72;;;6.10;99.90;;;;;;4941158;28;20455;-73
2022/12/09 07:56:59;;;;;;;6.85;5.65;;;6.00;99.90;;;;;;4946701;28;20257;-75
2022/12/09 07:59:25;;;;;;;10.00;7.00;;;6.00;99.90;;;;;;4936871;28;20191;-75
2022/12/09 08:01:52;;;;;;;10.85;6.55;;;6.10;99.90;;;;;;4958208;28;20705;-74
2022/12/09 08:04:18;;;;;;;7.47;5.80;;;6.00;99.90;;;;;;4932664;28;20194;-75
2022/12/09 08:06:44;;;;;;;10.27;6.00;;;6.10;99.90;;;;;;4940405;28;20481;-73
2022/12/09 08:09:12;;;;;;;7.40;5.87;;;6.10;99.90;;;;;;4956470;28;20187;-75
2022/12/09 08:11:41;;;;;;;8.40;6.53;;;6.00;99.90;;;;;;4943299;29;20541;-75
2022/12/09 08:14:11;;;;;;;7.93;5.72;;;6.00;99.90;;;;;;4924823;28;20497;-75
2022/12/09 08:16:37;;;;;;;9.32;6.60;;;6.00;99.90;;;;;;4956508;28;20191;-75
2022/12/09 08:19:03;;;;;;;8.25;6.97;;;6.00;99.90;;;;;;4956210;28;20247;-76
2022/12/09 08:21:31;;;;;;;8.02;6.03;;;6.10;99.90;;;;;;4919346;28;20260;-76
2022/12/09 08:24:00;;;;;;;9.68;6.88;;;6.00;99.90;;;;;;4941304;28;20227;-75
2022/12/09 08:26:30;;;;;;;8.63;6.63;;;6.00;99.90;;;;;;4951900;29;20219;-75
2022/12/09 08:28:57;;;;;;;8.50;6.35;;;6.00;99.90;;;;;;4941989;28;20206;-74
2022/12/09 08:31:27;;;;;;;11.88;7.53;;;6.00;99.90;;;;;;4936642;28;20813;-75
2022/12/09 08:33:53;;;;;;;11.40;6.95;;;6.00;99.90;;;;;;4955821;28;20171;-75
2022/12/09 08:36:25;;;;;;;9.63;6.78;;;6.00;99.90;;;;;;4973621;28;20183;-77
2022/12/09 08:39:00;;;;;;;9.05;6.30;;;6.00;99.90;;;;;;4940459;28;20297;-74
2022/12/09 08:41:35;;;;;;;10.40;6.40;;;6.00;99.90;;;;;;4972895;28;20215;-75
2022/12/09 08:44:10;;;;;;;10.57;7.18;;;6.00;99.90;;;;;;4973022;28;20180;-75
2022/12/09 08:46:42;;;;;;;9.05;6.78;;;6.00;99.90;;;;;;4951585;28;20207;-75
2022/12/09 08:49:09;;;;;;;8.57;7.15;;;6.00;99.90;;;;;;4924162;28;20676;-75
2022/12/09 08:51:35;;;;;;;11.25;6.90;;;6.00;99.90;;;;;;4955612;28;20239;-75
2022/12/09 08:54:02;;;;;;;8.43;6.97;;;6.00;99.90;;;;;;4972500;28;20654;-75
2022/12/09 08:56:30;;;;;;;14.68;7.32;;;5.90;99.90;;;;;;4940096;28;20668;-76
2022/12/09 08:58:56;;;;;;;12.18;7.25;;;5.90;99.90;;;;;;4923264;28;20295;-77
2022/12/09 09:01:36;;;;;;;9.30;6.60;;;5.90;99.90;;;;;;4972817;28;20210;-74
2022/12/09 09:04:05;;;;;;;9.60;7.15;;;5.90;99.90;;;;;;4923634;28;20188;-75
2022/12/09 09:06:37;;;;;;;11.10;6.80;;;5.90;99.90;;;;;;4955552;28;20736;-75
2022/12/09 09:09:07;;;;;;;9.00;6.50;;;6.00;99.90;;;;;;4939202;28;20180;-77
2022/12/09 09:11:39;;;;;;;10.65;7.32;;;5.90;99.90;;;;;;4955726;28;20245;-75
2022/12/09 09:14:12;;;;;;;9.45;6.80;;;5.90;99.90;;;;;;4936536;29;20186;-76
2022/12/09 09:16:44;;;;;;;9.00;7.55;;;5.90;99.90;;;;;;4936028;29;20626;-76
2022/12/09 09:19:19;;;;;;;12.38;7.68;;;5.90;99.90;;;;;;4933807;28;20277;-75
2022/12/09 09:21:45;;;;;;;9.52;7.40;;;5.90;99.90;;;;;;4972661;28;20237;-75
2022/12/09 09:24:14;;;;;;;9.70;7.50;;;5.90;99.90;;;;;;4955589;28;20211;-76
2022/12/09 09:26:43;;;;;;;9.45;7.40;;;5.90;99.90;;;;;;4955577;28;20451;-76
2022/12/09 09:29:13;;;;;;;10.25;6.60;;;5.90;99.90;;;;;;4955220;28;20679;-75
2022/12/09 09:31:40;;;;;;;11.00;8.07;;;5.90;99.90;;;;;;4955215;28;20663;-75
2022/12/09 09:34:06;;;;;;;9.02;7.28;;;5.90;99.90;;;;;;4954912;28;20574;-75
2022/12/09 09:36:35;;;;;;;9.70;7.80;;;5.90;99.90;;;;;;4972816;28;20203;-76
2022/12/09 09:39:04;;;;;;;8.57;6.43;;;5.90;99.90;;;;;;4948881;28;20432;-76
2022/12/09 09:41:55;;;;;;;11.90;7.22;;;5.90;99.90;;;;;;4936319;28;20692;-75
2022/12/09 09:44:52;;;;;;;10.43;7.47;;;5.90;99.90;;;;;;4954997;28;20184;-76
2022/12/09 09:47:27;;;;;;;12.02;7.30;;;5.90;99.90;;;;;;4938490;28;20218;-76
2022/12/09 09:49:59;;;;;;;8.93;7.28;;;5.90;99.90;;;;;;4955144;28;20253;-76
2022/12/09 09:52:27;;;;;;;11.45;8.10;;;5.90;99.90;;;;;;4970936;28;20200;-76
2022/12/09 09:54:54;;;;;;;11.40;8.00;;;5.90;99.90;;;;;;4939547;28;20269;-76
2022/12/09 09:57:23;;;;;;;11.13;8.35;;;5.90;99.90;;;;;;4972573;28;20649;-76
2022/12/09 10:00:10;;;;;;;11.30;7.25;;;5.80;99.90;;;;;;4939387;28;20222;-76
2022/12/09 10:03:03;;;;;;;12.88;8.85;;;5.90;99.90;;;;;;4952480;28;20195;-76
2022/12/09 10:05:32;;;;;;;11.30;8.25;;;5.90;99.90;;;;;;4946304;28;20238;-76
2022/12/09 10:08:57;;;;;;;14.23;8.80;;;5.90;99.90;;;;;;4975708;28;20294;-76
2022/12/09 10:11:37;;;;;;;10.43;8.30;;;5.90;99.90;;;;;;4865895;29;20218;-77
2022/12/09 10:14:05;;;;;;;14.60;8.13;;;5.90;99.90;;;;;;4955249;28;20228;-76
2022/12/09 10:17:06;;;;;;;10.98;8.50;;;5.90;99.90;;;;;;4958382;28;20175;-76
2022/12/09 10:19:36;;;;;;;14.65;8.95;;;5.90;99.90;;;;;;4940924;28;20282;-76
2022/12/09 10:22:36;;;;;;;12.25;7.72;;;5.90;99.90;;;;;;4939067;28;20267;-76
2022/12/09 10:25:24;;;;;;;12.63;8.20;;;5.90;99.90;;;;;;4951417;28;20171;-76
2022/12/09 10:28:03;;;;;;;14.65;9.32;;;5.90;99.90;;;;;;4942367;28;20212;-75
2022/12/09 10:30:29;;;;;;;12.35;8.80;;;5.90;99.90;;;;;;4972317;28;20242;-76
2022/12/09 10:32:55;;;;;;;10.80;8.83;;;5.90;99.90;;;;;;4975039;28;20188;-76
2022/12/09 10:35:28;;;;;;;12.02;8.45;;;5.90;99.90;;;;;;4973474;28;20471;-76
2022/12/09 10:38:15;;;;;;;13.98;9.15;;;5.90;99.90;;;;;;4942101;28;20180;-78
2022/12/09 10:40:44;;;;;;;12.63;8.20;;;5.90;99.90;;;;;;4976777;28;20212;-75
2022/12/09 10:43:35;;;;;;;13.60;8.65;;;5.90;99.90;;;;;;4957988;28;20766;-76
2022/12/09 10:46:09;;;;;;;12.35;8.73;;;5.90;99.90;;;;;;4956753;28;20183;-75
2022/12/09 10:48:42;;;;;;;14.00;8.63;;;5.90;99.90;;;;;;4941468;28;20192;-76
2022/12/09 10:51:20;;;;;;;10.73;8.75;;;5.90;99.90;;;;;;4974589;28;20208;-76
2022/12/09 10:53:49;;;;;;;9.55;8.07;;;5.90;99.90;;;;;;4957581;28;20540;-76
2022/12/09 10:56:33;;;;;;;10.90;7.55;;;5.90;99.90;;;;;;4941360;28;20404;-76
2022/12/09 10:59:18;;;;;;;12.43;8.85;;;5.90;99.90;;;;;;4965401;28;20324;-76
2022/12/09 11:01:50;;;;;;;12.98;8.90;;;5.90;99.90;;;;;;4944227;28;20446;-77
2022/12/09 11:04:24;;;;;;;9.55;7.50;;;5.90;99.90;;;;;;4969930;28;20633;-78
2022/12/09 11:06:52;;;;;;;12.18;8.00;;;6.00;99.90;;;;;;4942830;28;20709;-79
2022/12/09 11:09:32;;;;;;;13.13;9.13;;;6.00;99.90;;;;;;4941800;29;20662;-78
2022/12/09 11:12:02;;;;;;;14.02;8.50;;;6.00;99.90;;;;;;4973885;28;20207;-74
2022/12/09 11:14:47;;;;;;;13.05;8.07;;;6.00;99.90;;;;;;4967216;28;20246;-74
2022/12/09 11:17:21;;;;;;;13.43;8.05;;;6.00;99.90;;;;;;4954866;28;20234;-74
2022/12/09 11:19:56;;;;;;;9.73;7.40;;;6.00;99.90;;;;;;4947435;28;20202;-72
2022/12/09 11:22:44;;;;;;;11.20;7.88;;;6.00;99.90;;;;;;4946675;28;20215;-74
2022/12/09 11:25:31;;;;;;;12.63;8.60;;;6.00;99.90;;;;;;4956368;28;20186;-74
2022/12/09 11:28:02;;;;;;;16.40;8.23;;;6.00;99.90;;;;;;4941323;28;20179;-74
2022/12/09 11:30:35;;;;;;;10.40;7.90;;;6.00;99.90;;;;;;4956574;28;20183;-74
2022/12/09 11:33:15;;;;;;;11.82;9.30;;;6.00;99.90;;;;;;4957036;28;20654;-76
2022/12/09 11:35:44;;;;;;;11.35;7.85;;;6.00;99.90;;;;;;4948138;28;20635;-75
2022/12/09 11:38:39;;;;;;;10.30;7.70;;;6.00;99.90;;;;;;4975460;28;20321;-75
2022/12/09 11:41:11;;;;;;;12.48;7.97;;;6.00;99.90;;;;;;4949863;28;20706;-75
2022/12/09 11:43:45;;;;;;;12.43;7.10;;;6.00;99.90;;;;;;4973389;28;20207;-73
2022/12/09 11:46:11;;;;;;;11.65;8.35;;;6.10;99.90;;;;;;4981986;28;20207;-74
2022/12/09 11:49:07;;;;;;;14.90;7.50;;;6.00;99.90;;;;;;4956407;28;20673;-76
2022/12/09 11:51:36;;;;;;;8.65;6.55;;;6.10;99.90;;;;;;4956104;28;20466;-76
2022/12/09 11:54:14;;;;;;;8.95;7.03;;;6.00;99.90;;;;;;4956606;28;20178;-75
2022/12/09 11:56:40;;;;;;;9.68;7.35;;;6.10;99.90;;;;;;4956449;28;20615;-75
2022/12/09 11:59:23;;;;;;;10.83;6.47;;;6.10;99.90;;;;;;4956370;28;20638;-75
2022/12/09 12:02:13;;;;;;;8.93;7.10;;;6.10;99.90;;;;;;4956069;28;20466;-74
2022/12/09 12:04:56;;;;;;;9.07;7.13;;;6.10;99.90;;;;;;4941352;28;20179;-76
2022/12/09 12:07:38;;;;;;;10.55;7.13;;;6.10;99.90;;;;;;4943248;29;20428;-74
2022/12/09 12:10:20;;;;;;;10.38;7.15;;;6.10;99.90;;;;;;4940689;28;20373;-74
2022/12/09 12:13:01;;;;;;;10.70;7.25;;;6.10;99.90;;;;;;4955935;28;20175;-74
2022/12/09 12:15:43;;;;;;;11.13;7.50;;;6.10;99.90;;;;;;4956061;28;20247;-73
2022/12/09 12:18:22;;;;;;;10.55;7.20;;;6.10;99.90;;;;;;4986323;28;20219;-74
2022/12/09 12:21:17;;;;;;;9.80;7.05;;;6.10;99.90;;;;;;4981870;28;20230;-73
2022/12/09 12:23:48;;;;;;;12.77;7.32;;;6.10;99.90;;;;;;4970525;28;20192;-73
2022/12/09 12:27:04;;;;;;;8.65;6.30;;;6.10;99.90;;;;;;4955169;28;20180;-77
2022/12/09 12:29:59;;;;;;;8.43;6.60;;;6.10;99.90;;;;;;4961816;28;20195;-73
2022/12/09 12:32:59;;;;;;;10.13;6.50;;;6.10;99.90;;;;;;4939732;28;20208;-72
2022/12/09 12:35:47;;;;;;;8.18;6.38;;;6.20;99.90;;;;;;4940743;28;20198;-73
2022/12/09 12:38:28;;;;;;;11.70;7.43;;;6.10;99.90;;;;;;4943743;29;20251;-73
2022/12/09 12:41:15;;;;;;;10.57;6.82;;;6.10;99.90;;;;;;4949790;28;20642;-74
2022/12/09 12:46:52;;;;;;;8.05;6.72;;;6.10;99.90;;;;;;4981782;28;20185;-73
2022/12/09 12:50:09;;;;;;;8.85;6.57;;;6.10;99.90;;;;;;4944364;28;20190;-75
2022/12/09 12:52:51;;;;;;;8.23;5.78;;;6.20;99.90;;;;;;4972608;28;20211;-74
2022/12/09 12:55:42;;;;;;;8.10;6.68;;;6.20;99.90;;;;;;4936951;29;20257;-74
2022/12/09 12:58:13;;;;;;;10.00;7.55;;;6.20;99.90;;;;;;4929166;28;20203;-74
2022/12/09 13:01:24;;;;;;;9.20;7.30;;;6.20;99.90;;;;;;4964881;28;20272;-75
2022/12/09 13:03:50;;;;;;;10.60;6.32;;;6.20;99.90;;;;;;4903235;29;20205;-74
2022/12/09 13:06:19;;;;;;;9.05;6.88;;;6.20;99.90;;;;;;4961430;28;20563;-75
2022/12/09 13:08:46;;;;;;;8.15;6.00;;;6.20;99.90;;;;;;4956057;28;20202;-75
2022/12/09 13:11:25;;;;;;;10.80;6.68;;;6.20;99.90;;;;;;4940171;28;20299;-74
2022/12/09 13:14:00;;;;;;;10.10;6.53;;;6.20;99.90;;;;;;4956174;28;20204;-75
2022/12/09 13:16:34;;;;;;;9.07;6.93;;;6.20;99.90;;;;;;4970024;28;20206;-74
2022/12/09 13:19:20;;;;;;;7.38;6.35;;;6.20;99.90;;;;;;4957079;28;20642;-81
2022/12/09 13:21:47;;;;;;;8.40;6.35;;;6.20;99.90;;;;;;4956629;28;20214;-74
2022/12/09 13:24:25;;;;;;;11.82;5.90;;;6.20;99.90;;;;;;4940726;28;22102;-74